sensor_id;sensor_type;location;lat;lon;timestamp;temperature;humidity
8611;DHT22;4343;53.648;10.098;2024-03-17T00:02:08;4.80;99.90
8611;DHT22;4343;53.648;10.098;2024-03-17T00:04:34;4.80;99.90
8611;DHT22;4343;53.648;10.098;2024-03-17T00:06:59;4.70;99.90
8611;DHT22;4343;53.648;10.098;2024-03-17T00:09:25;4.70;99.90
8611;DHT22;4343;53.648;10.098;2024-03-17T00:11:50;4.70;99.90
8611;DHT22;4343;53.648;10.098;2024-03-17T00:14:16;4.60;99.90
8611;DHT22;4343;53.648;10.098;2024-03-17T00:16:43;4.60;99.90
8611;DHT22;4343;53.648;10.098;2024-03-17T00:19:09;4.60;99.90
8611;DHT22;4343;53.648;10.098;2024-03-17T00:21:35;4.60;99.90
8611;DHT22;4343;53.648;10.098;2024-03-17T00:24:01;4.50;99.90
8611;DHT22;4343;53.648;10.098;2024-03-17T00:26:27;4.50;99.90
8611;DHT22;4343;53.648;10.098;2024-03-17T00:28:54;4.50;99.90
8611;DHT22;4343;53.648;10.098;2024-03-17T00:31:20;4.40;99.90
8611;DHT22;4343;53.648;10.098;2024-03-17T00:33:45;4.40;99.90
8611;DHT22;4343;53.648;10.098;2024-03-17T00:36:11;4.50;99.90
8611;DHT22;4343;53.648;10.098;2024-03-17T00:38:37;4.40;99.90
8611;DHT22;4343;53.648;10.098;2024-03-17T00:41:03;4.40;99.90
8611;DHT22;4343;53.648;10.098;2024-03-17T00:43:28;4.40;99.90
8611;DHT22;4343;53.648;10.098;2024-03-17T00:45:54;4.40;99.90
8611;DHT22;4343;53.648;10.098;2024-03-17T00:48:19;4.40;99.90
8611;DHT22;4343;53.648;10.098;2024-03-17T00:50:45;4.30;99.90
8611;DHT22;4343;53.648;10.098;2024-03-17T00:53:11;4.30;99.90
8611;DHT22;4343;53.648;10.098;2024-03-17T00:55:36;4.30;99.90
8611;DHT22;4343;53.648;10.098;2024-03-17T00:58:02;4.30;99.90
8611;DHT22;4343;53.648;10.098;2024-03-17T01:00:28;4.30;99.90
8611;DHT22;4343;53.648;10.098;2024-03-17T01:02:54;4.30;99.90
8611;DHT22;4343;53.648;10.098;2024-03-17T01:05:19;4.30;99.90
8611;DHT22;4343;53.648;10.098;2024-03-17T01:07:45;4.30;99.90
8611;DHT22;4343;53.648;10.098;2024-03-17T01:10:12;4.30;99.90
8611;DHT22;4343;53.648;10.098;2024-03-17T01:12:37;4.40;99.90
8611;DHT22;4343;53.648;10.098;2024-03-17T01:15:04;4.30;99.90
8611;DHT22;4343;53.648;10.098;2024-03-17T01:17:30;4.30;99.90
8611;DHT22;4343;53.648;10.098;2024-03-17T01:19:55;4.30;99.90
8611;DHT22;4343;53.648;10.098;2024-03-17T01:22:21;4.30;99.90
8611;DHT22;4343;53.648;10.098;2024-03-17T01:24:47;4.30;99.90
8611;DHT22;4343;53.648;10.098;2024-03-17T01:27:13;4.30;99.90
8611;DHT22;4343;53.648;10.098;2024-03-17T01:29:41;4.30;99.90
8611;DHT22;4343;53.648;10.098;2024-03-17T01:32:07;4.30;99.90
8611;DHT22;4343;53.648;10.098;2024-03-17T01:34:32;4.30;99.90
8611;DHT22;4343;53.648;10.098;2024-03-17T01:36:58;4.30;99.90
8611;DHT22;4343;53.648;10.098;2024-03-17T01:39:23;4.30;99.90
8611;DHT22;4343;53.648;10.098;2024-03-17T01:41:49;4.30;99.90
8611;DHT22;4343;53.648;10.098;2024-03-17T01:44:25;4.30;99.90
8611;DHT22;4343;53.648;10.098;2024-03-17T01:46:51;4.30;99.90
8611;DHT22;4343;53.648;10.098;2024-03-17T01:49:17;4.30;99.90
8611;DHT22;4343;53.648;10.098;2024-03-17T01:51:43;4.30;99.90
8611;DHT22;4343;53.648;10.098;2024-03-17T01:54:09;4.20;99.90
8611;DHT22;4343;53.648;10.098;2024-03-17T01:56:36;4.20;99.90
8611;DHT22;4343;53.648;10.098;2024-03-17T01:59:01;4.20;99.90
8611;DHT22;4343;53.648;10.098;2024-03-17T02:01:26;4.20;99.90
8611;DHT22;4343;53.648;10.098;2024-03-17T02:03:52;4.20;99.90
8611;DHT22;4343;53.648;10.098;2024-03-17T02:06:18;4.20;99.90
8611;DHT22;4343;53.648;10.098;2024-03-17T02:08:47;4.20;99.90
8611;DHT22;4343;53.648;10.098;2024-03-17T02:11:23;4.20;99.90
8611;DHT22;4343;53.648;10.098;2024-03-17T02:13:48;4.20;99.90
8611;DHT22;4343;53.648;10.098;2024-03-17T02:16:15;4.10;99.90
8611;DHT22;4343;53.648;10.098;2024-03-17T02:18:40;4.10;99.90
8611;DHT22;4343;53.648;10.098;2024-03-17T02:21:06;4.10;99.90
8611;DHT22;4343;53.648;10.098;2024-03-17T02:23:33;4.10;99.90
8611;DHT22;4343;53.648;10.098;2024-03-17T02:25:58;4.10;99.90
8611;DHT22;4343;53.648;10.098;2024-03-17T02:28:24;4.10;99.90
8611;DHT22;4343;53.648;10.098;2024-03-17T02:30:49;4.10;99.90
8611;DHT22;4343;53.648;10.098;2024-03-17T02:33:15;4.10;99.90
8611;DHT22;4343;53.648;10.098;2024-03-17T02:35:40;4.10;99.90
8611;DHT22;4343;53.648;10.098;2024-03-17T02:40:54;4.00;99.90
8611;DHT22;4343;53.648;10.098;2024-03-17T02:43:19;4.00;99.90
8611;DHT22;4343;53.648;10.098;2024-03-17T02:45:45;4.00;99.90
8611;DHT22;4343;53.648;10.098;2024-03-17T02:48:11;4.00;99.90
8611;DHT22;4343;53.648;10.098;2024-03-17T02:50:36;4.00;99.90
8611;DHT22;4343;53.648;10.098;2024-03-17T02:53:01;3.90;99.90
8611;DHT22;4343;53.648;10.098;2024-03-17T02:55:28;3.90;99.90
8611;DHT22;4343;53.648;10.098;2024-03-17T02:57:55;3.90;99.90
8611;DHT22;4343;53.648;10.098;2024-03-17T03:00:20;3.80;99.90
8611;DHT22;4343;53.648;10.098;2024-03-17T03:02:47;3.80;99.90
8611;DHT22;4343;53.648;10.098;2024-03-17T03:05:12;3.80;99.90
8611;DHT22;4343;53.648;10.098;2024-03-17T03:07:37;3.80;99.90
8611;DHT22;4343;53.648;10.098;2024-03-17T03:10:03;3.70;99.90
8611;DHT22;4343;53.648;10.098;2024-03-17T03:12:29;3.70;99.90
8611;DHT22;4343;53.648;10.098;2024-03-17T03:14:54;3.70;99.90
8611;DHT22;4343;53.648;10.098;2024-03-17T03:17:20;3.60;99.90
8611;DHT22;4343;53.648;10.098;2024-03-17T03:19:45;3.60;99.90
8611;DHT22;4343;53.648;10.098;2024-03-17T03:22:10;3.60;99.90
8611;DHT22;4343;53.648;10.098;2024-03-17T03:24:36;3.60;99.90
8611;DHT22;4343;53.648;10.098;2024-03-17T03:27:02;3.50;99.90
8611;DHT22;4343;53.648;10.098;2024-03-17T03:29:29;3.50;99.90
8611;DHT22;4343;53.648;10.098;2024-03-17T03:31:55;3.50;99.90
8611;DHT22;4343;53.648;10.098;2024-03-17T03:34:20;3.40;99.90
8611;DHT22;4343;53.648;10.098;2024-03-17T03:36:46;3.40;99.90
8611;DHT22;4343;53.648;10.098;2024-03-17T03:39:11;3.40;99.90
8611;DHT22;4343;53.648;10.098;2024-03-17T03:41:38;3.30;99.90
8611;DHT22;4343;53.648;10.098;2024-03-17T03:44:04;3.30;99.90
8611;DHT22;4343;53.648;10.098;2024-03-17T03:46:29;3.30;99.90
8611;DHT22;4343;53.648;10.098;2024-03-17T03:48:55;3.30;99.90
8611;DHT22;4343;53.648;10.098;2024-03-17T03:51:21;3.20;99.90
8611;DHT22;4343;53.648;10.098;2024-03-17T03:53:46;3.20;99.90
8611;DHT22;4343;53.648;10.098;2024-03-17T03:56:12;3.20;99.90
8611;DHT22;4343;53.648;10.098;2024-03-17T03:58:38;3.10;99.90
8611;DHT22;4343;53.648;10.098;2024-03-17T04:01:05;3.10;99.90
8611;DHT22;4343;53.648;10.098;2024-03-17T04:03:31;3.10;99.90
8611;DHT22;4343;53.648;10.098;2024-03-17T04:08:30;3.10;99.90
8611;DHT22;4343;53.648;10.098;2024-03-17T04:10:55;3.10;99.90
8611;DHT22;4343;53.648;10.098;2024-03-17T04:13:21;3.10;99.90
8611;DHT22;4343;53.648;10.098;2024-03-17T04:15:47;3.10;99.90
8611;DHT22;4343;53.648;10.098;2024-03-17T04:18:12;3.10;99.90
8611;DHT22;4343;53.648;10.098;2024-03-17T04:20:39;3.10;99.90
8611;DHT22;4343;53.648;10.098;2024-03-17T04:23:05;3.10;99.90
8611;DHT22;4343;53.648;10.098;2024-03-17T04:25:31;3.10;99.90
8611;DHT22;4343;53.648;10.098;2024-03-17T04:27:56;3.10;99.90
8611;DHT22;4343;53.648;10.098;2024-03-17T04:30:22;3.10;99.90
8611;DHT22;4343;53.648;10.098;2024-03-17T04:32:48;3.10;99.90
8611;DHT22;4343;53.648;10.098;2024-03-17T04:35:13;3.20;99.90
8611;DHT22;4343;53.648;10.098;2024-03-17T04:37:39;3.20;99.90
8611;DHT22;4343;53.648;10.098;2024-03-17T04:40:06;3.20;99.90
8611;DHT22;4343;53.648;10.098;2024-03-17T04:42:34;3.20;99.90
8611;DHT22;4343;53.648;10.098;2024-03-17T04:45:00;3.20;99.90
8611;DHT22;4343;53.648;10.098;2024-03-17T04:47:25;3.20;99.90
8611;DHT22;4343;53.648;10.098;2024-03-17T04:49:51;3.20;99.90
8611;DHT22;4343;53.648;10.098;2024-03-17T04:52:16;3.20;99.90
8611;DHT22;4343;53.648;10.098;2024-03-17T04:54:42;3.30;99.90
8611;DHT22;4343;53.648;10.098;2024-03-17T04:57:08;3.30;99.90
8611;DHT22;4343;53.648;10.098;2024-03-17T04:59:34;3.30;99.90
8611;DHT22;4343;53.648;10.098;2024-03-17T05:02:00;3.30;99.90
8611;DHT22;4343;53.648;10.098;2024-03-17T05:04:25;3.30;99.90
8611;DHT22;4343;53.648;10.098;2024-03-17T05:06:51;3.30;99.90
8611;DHT22;4343;53.648;10.098;2024-03-17T05:09:16;3.30;99.90
8611;DHT22;4343;53.648;10.098;2024-03-17T05:11:42;3.20;99.90
8611;DHT22;4343;53.648;10.098;2024-03-17T05:14:07;3.30;99.90
8611;DHT22;4343;53.648;10.098;2024-03-17T05:16:33;3.30;99.90
8611;DHT22;4343;53.648;10.098;2024-03-17T05:18:58;3.30;99.90
8611;DHT22;4343;53.648;10.098;2024-03-17T05:21:24;3.20;99.90
8611;DHT22;4343;53.648;10.098;2024-03-17T05:23:51;3.30;99.90
8611;DHT22;4343;53.648;10.098;2024-03-17T05:26:17;3.30;99.90
8611;DHT22;4343;53.648;10.098;2024-03-17T05:28:43;3.20;99.90
8611;DHT22;4343;53.648;10.098;2024-03-17T05:31:09;3.20;99.90
8611;DHT22;4343;53.648;10.098;2024-03-17T05:33:35;3.20;99.90
8611;DHT22;4343;53.648;10.098;2024-03-17T05:36:00;3.20;99.90
8611;DHT22;4343;53.648;10.098;2024-03-17T05:38:28;3.20;99.90
8611;DHT22;4343;53.648;10.098;2024-03-17T05:43:20;3.10;99.90
8611;DHT22;4343;53.648;10.098;2024-03-17T05:45:46;3.10;99.90
8611;DHT22;4343;53.648;10.098;2024-03-17T05:48:11;3.10;99.90
8611;DHT22;4343;53.648;10.098;2024-03-17T05:50:36;3.10;99.90
8611;DHT22;4343;53.648;10.098;2024-03-17T05:53:02;3.00;99.90
8611;DHT22;4343;53.648;10.098;2024-03-17T05:55:28;3.00;99.90
8611;DHT22;4343;53.648;10.098;2024-03-17T05:57:53;3.00;99.90
8611;DHT22;4343;53.648;10.098;2024-03-17T06:00:19;3.00;99.90
8611;DHT22;4343;53.648;10.098;2024-03-17T06:02:44;3.00;99.90
8611;DHT22;4343;53.648;10.098;2024-03-17T06:05:11;2.90;99.90
8611;DHT22;4343;53.648;10.098;2024-03-17T06:07:39;2.90;99.90
8611;DHT22;4343;53.648;10.098;2024-03-17T06:10:05;2.90;99.90
8611;DHT22;4343;53.648;10.098;2024-03-17T06:12:31;2.90;99.90
8611;DHT22;4343;53.648;10.098;2024-03-17T06:14:56;2.90;99.90
8611;DHT22;4343;53.648;10.098;2024-03-17T06:17:22;2.90;99.90
8611;DHT22;4343;53.648;10.098;2024-03-17T06:19:47;2.90;99.90
8611;DHT22;4343;53.648;10.098;2024-03-17T06:22:12;2.90;99.90
8611;DHT22;4343;53.648;10.098;2024-03-17T06:24:38;2.90;99.90
8611;DHT22;4343;53.648;10.098;2024-03-17T06:27:04;2.90;99.90
8611;DHT22;4343;53.648;10.098;2024-03-17T06:29:32;2.90;99.90
8611;DHT22;4343;53.648;10.098;2024-03-17T06:31:57;2.90;99.90
8611;DHT22;4343;53.648;10.098;2024-03-17T06:34:23;2.90;99.90
8611;DHT22;4343;53.648;10.098;2024-03-17T06:36:48;2.90;99.90
8611;DHT22;4343;53.648;10.098;2024-03-17T06:39:14;3.00;99.90
8611;DHT22;4343;53.648;10.098;2024-03-17T06:41:41;3.00;99.90
8611;DHT22;4343;53.648;10.098;2024-03-17T06:44:07;3.10;99.90
8611;DHT22;4343;53.648;10.098;2024-03-17T06:46:32;3.10;99.90
8611;DHT22;4343;53.648;10.098;2024-03-17T06:48:58;3.20;99.90
8611;DHT22;4343;53.648;10.098;2024-03-17T06:51:25;3.20;99.90
8611;DHT22;4343;53.648;10.098;2024-03-17T06:53:50;3.30;99.90
8611;DHT22;4343;53.648;10.098;2024-03-17T06:56:15;3.40;99.90
8611;DHT22;4343;53.648;10.098;2024-03-17T06:58:41;3.40;99.90
8611;DHT22;4343;53.648;10.098;2024-03-17T07:01:06;3.50;99.90
8611;DHT22;4343;53.648;10.098;2024-03-17T07:03:33;3.60;99.90
8611;DHT22;4343;53.648;10.098;2024-03-17T07:05:59;3.70;99.90
8611;DHT22;4343;53.648;10.098;2024-03-17T07:08:27;3.80;99.90
8611;DHT22;4343;53.648;10.098;2024-03-17T07:11:02;3.90;99.90
8611;DHT22;4343;53.648;10.098;2024-03-17T07:15:57;4.20;99.90
8611;DHT22;4343;53.648;10.098;2024-03-17T07:18:24;4.30;99.90
8611;DHT22;4343;53.648;10.098;2024-03-17T07:20:49;4.40;99.90
8611;DHT22;4343;53.648;10.098;2024-03-17T07:23:15;4.60;99.90
8611;DHT22;4343;53.648;10.098;2024-03-17T07:25:51;4.70;99.90
8611;DHT22;4343;53.648;10.098;2024-03-17T07:28:17;4.90;99.90
8611;DHT22;4343;53.648;10.098;2024-03-17T07:30:46;5.10;99.90
8611;DHT22;4343;53.648;10.098;2024-03-17T07:33:12;5.20;99.90
8611;DHT22;4343;53.648;10.098;2024-03-17T07:35:45;5.40;99.90
8611;DHT22;4343;53.648;10.098;2024-03-17T07:38:11;5.60;99.90
8611;DHT22;4343;53.648;10.098;2024-03-17T07:40:36;5.70;99.90
8611;DHT22;4343;53.648;10.098;2024-03-17T07:43:02;5.90;99.90
8611;DHT22;4343;53.648;10.098;2024-03-17T07:45:27;6.10;99.90
8611;DHT22;4343;53.648;10.098;2024-03-17T07:47:52;6.20;99.90
8611;DHT22;4343;53.648;10.098;2024-03-17T07:50:18;6.40;99.90
8611;DHT22;4343;53.648;10.098;2024-03-17T07:52:43;6.50;99.90
8611;DHT22;4343;53.648;10.098;2024-03-17T07:55:09;6.60;99.90
8611;DHT22;4343;53.648;10.098;2024-03-17T07:57:34;6.80;99.90
8611;DHT22;4343;53.648;10.098;2024-03-17T08:00:00;6.90;99.90
8611;DHT22;4343;53.648;10.098;2024-03-17T08:02:25;7.00;99.90
8611;DHT22;4343;53.648;10.098;2024-03-17T08:04:51;7.10;99.90
8611;DHT22;4343;53.648;10.098;2024-03-17T08:07:16;7.20;99.90
8611;DHT22;4343;53.648;10.098;2024-03-17T08:09:42;7.30;99.90
8611;DHT22;4343;53.648;10.098;2024-03-17T08:12:07;7.50;99.90
8611;DHT22;4343;53.648;10.098;2024-03-17T08:14:33;7.60;99.90
8611;DHT22;4343;53.648;10.098;2024-03-17T08:16:58;7.70;99.90
8611;DHT22;4343;53.648;10.098;2024-03-17T08:19:24;7.80;99.90
8611;DHT22;4343;53.648;10.098;2024-03-17T08:21:49;7.80;99.90
8611;DHT22;4343;53.648;10.098;2024-03-17T08:24:14;7.90;99.90
8611;DHT22;4343;53.648;10.098;2024-03-17T08:26:40;8.00;99.90
8611;DHT22;4343;53.648;10.098;2024-03-17T08:29:06;8.10;99.90
8611;DHT22;4343;53.648;10.098;2024-03-17T08:31:31;8.10;99.90
8611;DHT22;4343;53.648;10.098;2024-03-17T08:33:57;8.20;99.90
8611;DHT22;4343;53.648;10.098;2024-03-17T08:36:22;8.20;99.90
8611;DHT22;4343;53.648;10.098;2024-03-17T08:38:48;8.40;99.90
8611;DHT22;4343;53.648;10.098;2024-03-17T08:41:13;8.50;99.90
8611;DHT22;4343;53.648;10.098;2024-03-17T08:43:39;8.60;99.90
8611;DHT22;4343;53.648;10.098;2024-03-17T08:46:08;8.70;99.90
8611;DHT22;4343;53.648;10.098;2024-03-17T08:48:37;8.70;99.90
8611;DHT22;4343;53.648;10.098;2024-03-17T08:51:04;8.80;99.90
8611;DHT22;4343;53.648;10.098;2024-03-17T08:53:30;8.80;99.90
8611;DHT22;4343;53.648;10.098;2024-03-17T08:55:56;8.90;99.90
8611;DHT22;4343;53.648;10.098;2024-03-17T08:58:22;9.00;99.90
8611;DHT22;4343;53.648;10.098;2024-03-17T09:00:47;9.10;99.90
8611;DHT22;4343;53.648;10.098;2024-03-17T09:03:13;9.20;99.90
8611;DHT22;4343;53.648;10.098;2024-03-17T09:05:40;9.20;99.90
8611;DHT22;4343;53.648;10.098;2024-03-17T09:08:06;9.20;99.90
8611;DHT22;4343;53.648;10.098;2024-03-17T09:10:40;9.20;99.90
8611;DHT22;4343;53.648;10.098;2024-03-17T09:13:06;9.30;99.90
8611;DHT22;4343;53.648;10.098;2024-03-17T09:15:31;9.30;99.90
8611;DHT22;4343;53.648;10.098;2024-03-17T09:17:57;9.40;99.90
8611;DHT22;4343;53.648;10.098;2024-03-17T09:20:22;9.50;99.90
8611;DHT22;4343;53.648;10.098;2024-03-17T09:22:48;9.60;99.90
8611;DHT22;4343;53.648;10.098;2024-03-17T09:25:13;9.60;99.90
8611;DHT22;4343;53.648;10.098;2024-03-17T09:27:40;9.70;99.90
8611;DHT22;4343;53.648;10.098;2024-03-17T09:30:05;9.70;99.90
8611;DHT22;4343;53.648;10.098;2024-03-17T09:32:38;9.80;99.90
8611;DHT22;4343;53.648;10.098;2024-03-17T09:35:06;9.90;99.90
8611;DHT22;4343;53.648;10.098;2024-03-17T09:37:32;10.00;99.90
8611;DHT22;4343;53.648;10.098;2024-03-17T09:39:58;10.10;99.90
8611;DHT22;4343;53.648;10.098;2024-03-17T09:42:25;10.10;99.90
8611;DHT22;4343;53.648;10.098;2024-03-17T09:44:51;10.20;99.90
8611;DHT22;4343;53.648;10.098;2024-03-17T09:47:19;10.10;99.90
8611;DHT22;4343;53.648;10.098;2024-03-17T09:49:47;10.00;99.90
8611;DHT22;4343;53.648;10.098;2024-03-17T09:52:23;10.00;99.90
8611;DHT22;4343;53.648;10.098;2024-03-17T09:54:59;9.90;99.90
8611;DHT22;4343;53.648;10.098;2024-03-17T09:57:26;9.90;99.90
8611;DHT22;4343;53.648;10.098;2024-03-17T09:59:52;9.80;99.90
8611;DHT22;4343;53.648;10.098;2024-03-17T10:02:19;9.80;99.90
8611;DHT22;4343;53.648;10.098;2024-03-17T10:04:44;9.80;99.90
8611;DHT22;4343;53.648;10.098;2024-03-17T10:07:09;9.80;99.90
8611;DHT22;4343;53.648;10.098;2024-03-17T10:09:35;9.90;99.90
8611;DHT22;4343;53.648;10.098;2024-03-17T10:12:01;10.00;99.90
8611;DHT22;4343;53.648;10.098;2024-03-17T10:14:27;10.10;99.90
8611;DHT22;4343;53.648;10.098;2024-03-17T10:16:52;10.20;99.90
8611;DHT22;4343;53.648;10.098;2024-03-17T10:19:21;10.20;99.90
8611;DHT22;4343;53.648;10.098;2024-03-17T10:21:47;10.10;99.90
8611;DHT22;4343;53.648;10.098;2024-03-17T10:24:19;10.10;99.90
8611;DHT22;4343;53.648;10.098;2024-03-17T10:26:49;10.00;99.90
8611;DHT22;4343;53.648;10.098;2024-03-17T10:31:50;10.00;99.90
8611;DHT22;4343;53.648;10.098;2024-03-17T10:34:15;10.00;99.90
8611;DHT22;4343;53.648;10.098;2024-03-17T10:36:46;9.90;99.90
8611;DHT22;4343;53.648;10.098;2024-03-17T10:39:25;9.90;99.90
8611;DHT22;4343;53.648;10.098;2024-03-17T10:42:01;9.90;99.90
8611;DHT22;4343;53.648;10.098;2024-03-17T10:44:28;9.90;99.90
8611;DHT22;4343;53.648;10.098;2024-03-17T10:46:56;9.90;99.90
8611;DHT22;4343;53.648;10.098;2024-03-17T10:49:28;10.00;99.90
8611;DHT22;4343;53.648;10.098;2024-03-17T10:51:56;10.00;99.90
8611;DHT22;4343;53.648;10.098;2024-03-17T10:54:24;10.00;99.90
8611;DHT22;4343;53.648;10.098;2024-03-17T10:56:56;10.20;99.90
8611;DHT22;4343;53.648;10.098;2024-03-17T10:59:38;10.30;99.90
8611;DHT22;4343;53.648;10.098;2024-03-17T11:02:13;10.50;99.90
8611;DHT22;4343;53.648;10.098;2024-03-17T11:04:42;10.60;99.90
8611;DHT22;4343;53.648;10.098;2024-03-17T11:07:08;10.60;99.90
8611;DHT22;4343;53.648;10.098;2024-03-17T11:12:14;10.80;99.90
8611;DHT22;4343;53.648;10.098;2024-03-17T11:15:04;10.90;99.90
8611;DHT22;4343;53.648;10.098;2024-03-17T11:17:36;11.00;99.90
8611;DHT22;4343;53.648;10.098;2024-03-17T11:20:11;11.10;99.90
8611;DHT22;4343;53.648;10.098;2024-03-17T11:22:44;11.20;99.90
8611;DHT22;4343;53.648;10.098;2024-03-17T11:27:51;11.40;99.90
8611;DHT22;4343;53.648;10.098;2024-03-17T11:33:01;11.60;99.90
8611;DHT22;4343;53.648;10.098;2024-03-17T11:35:26;11.80;99.90
8611;DHT22;4343;53.648;10.098;2024-03-17T11:37:52;11.90;99.90
8611;DHT22;4343;53.648;10.098;2024-03-17T11:40:25;12.10;99.90
8611;DHT22;4343;53.648;10.098;2024-03-17T11:43:00;12.20;99.90
8611;DHT22;4343;53.648;10.098;2024-03-17T11:45:26;12.30;99.90
8611;DHT22;4343;53.648;10.098;2024-03-17T11:50:41;12.50;99.90
8611;DHT22;4343;53.648;10.098;2024-03-17T11:53:08;12.60;99.90
8611;DHT22;4343;53.648;10.098;2024-03-17T11:55:34;12.70;99.90
8611;DHT22;4343;53.648;10.098;2024-03-17T11:57:59;12.70;99.90
8611;DHT22;4343;53.648;10.098;2024-03-17T12:00:25;12.80;99.90
8611;DHT22;4343;53.648;10.098;2024-03-17T12:02:51;12.80;99.90
8611;DHT22;4343;53.648;10.098;2024-03-17T12:05:16;12.90;99.90
8611;DHT22;4343;53.648;10.098;2024-03-17T12:07:42;12.90;99.90
8611;DHT22;4343;53.648;10.098;2024-03-17T12:10:10;12.90;99.90
8611;DHT22;4343;53.648;10.098;2024-03-17T12:12:35;13.00;99.90
8611;DHT22;4343;53.648;10.098;2024-03-17T12:15:01;13.10;99.90
8611;DHT22;4343;53.648;10.098;2024-03-17T12:17:28;13.20;99.90
8611;DHT22;4343;53.648;10.098;2024-03-17T12:19:56;13.30;99.90
8611;DHT22;4343;53.648;10.098;2024-03-17T12:22:25;13.50;99.90
8611;DHT22;4343;53.648;10.098;2024-03-17T12:24:53;13.70;99.90
8611;DHT22;4343;53.648;10.098;2024-03-17T12:27:20;13.80;99.90
8611;DHT22;4343;53.648;10.098;2024-03-17T12:29:46;14.10;99.90
8611;DHT22;4343;53.648;10.098;2024-03-17T12:34:38;14.40;99.90
8611;DHT22;4343;53.648;10.098;2024-03-17T12:37:04;14.50;99.90
8611;DHT22;4343;53.648;10.098;2024-03-17T12:39:30;14.60;99.90
8611;DHT22;4343;53.648;10.098;2024-03-17T12:44:29;15.00;99.90
8611;DHT22;4343;53.648;10.098;2024-03-17T12:46:55;15.10;99.90
8611;DHT22;4343;53.648;10.098;2024-03-17T12:49:21;15.30;99.90
8611;DHT22;4343;53.648;10.098;2024-03-17T12:51:47;15.50;99.90
8611;DHT22;4343;53.648;10.098;2024-03-17T12:54:13;15.60;99.90
8611;DHT22;4343;53.648;10.098;2024-03-17T12:56:38;15.70;99.90
8611;DHT22;4343;53.648;10.098;2024-03-17T12:59:23;15.80;99.90
8611;DHT22;4343;53.648;10.098;2024-03-17T13:02:11;15.90;99.90
8611;DHT22;4343;53.648;10.098;2024-03-17T13:04:40;16.10;99.90
8611;DHT22;4343;53.648;10.098;2024-03-17T13:07:14;16.10;99.90
8611;DHT22;4343;53.648;10.098;2024-03-17T13:09:41;16.20;99.90
8611;DHT22;4343;53.648;10.098;2024-03-17T13:12:13;16.20;99.90
8611;DHT22;4343;53.648;10.098;2024-03-17T13:14:39;16.20;99.90
8611;DHT22;4343;53.648;10.098;2024-03-17T13:17:05;16.10;99.90
8611;DHT22;4343;53.648;10.098;2024-03-17T13:19:32;16.20;99.90
8611;DHT22;4343;53.648;10.098;2024-03-17T13:21:59;16.20;99.90
8611;DHT22;4343;53.648;10.098;2024-03-17T13:24:24;16.30;99.90
8611;DHT22;4343;53.648;10.098;2024-03-17T13:26:50;16.30;99.90
8611;DHT22;4343;53.648;10.098;2024-03-17T13:29:17;16.50;99.90
8611;DHT22;4343;53.648;10.098;2024-03-17T13:31:42;16.60;99.90
8611;DHT22;4343;53.648;10.098;2024-03-17T13:34:08;16.70;99.90
8611;DHT22;4343;53.648;10.098;2024-03-17T13:36:34;16.80;99.90
8611;DHT22;4343;53.648;10.098;2024-03-17T13:39:00;16.80;99.90
8611;DHT22;4343;53.648;10.098;2024-03-17T13:41:25;16.80;99.90
8611;DHT22;4343;53.648;10.098;2024-03-17T13:43:51;16.90;99.90
8611;DHT22;4343;53.648;10.098;2024-03-17T13:46:22;17.00;99.90
8611;DHT22;4343;53.648;10.098;2024-03-17T13:48:48;17.00;99.90
8611;DHT22;4343;53.648;10.098;2024-03-17T13:51:14;17.10;99.90
8611;DHT22;4343;53.648;10.098;2024-03-17T13:53:39;17.10;99.90
8611;DHT22;4343;53.648;10.098;2024-03-17T13:56:05;17.30;99.90
8611;DHT22;4343;53.648;10.098;2024-03-17T13:58:30;17.40;99.90
8611;DHT22;4343;53.648;10.098;2024-03-17T14:00:56;17.50;99.80
8611;DHT22;4343;53.648;10.098;2024-03-17T14:03:21;17.50;99.60
8611;DHT22;4343;53.648;10.098;2024-03-17T14:05:50;17.50;99.50
8611;DHT22;4343;53.648;10.098;2024-03-17T14:08:15;17.50;99.30
8611;DHT22;4343;53.648;10.098;2024-03-17T14:10:41;17.60;99.10
8611;DHT22;4343;53.648;10.098;2024-03-17T14:13:06;17.60;99.30
8611;DHT22;4343;53.648;10.098;2024-03-17T14:15:33;17.60;98.10
8611;DHT22;4343;53.648;10.098;2024-03-17T14:17:58;17.60;98.60
8611;DHT22;4343;53.648;10.098;2024-03-17T14:20:24;17.50;98.50
8611;DHT22;4343;53.648;10.098;2024-03-17T14:22:49;17.40;98.20
8611;DHT22;4343;53.648;10.098;2024-03-17T14:25:22;17.30;97.70
8611;DHT22;4343;53.648;10.098;2024-03-17T14:27:48;17.20;97.30
8611;DHT22;4343;53.648;10.098;2024-03-17T14:30:15;17.10;97.60
8611;DHT22;4343;53.648;10.098;2024-03-17T14:32:40;16.90;97.90
8611;DHT22;4343;53.648;10.098;2024-03-17T14:35:06;16.60;97.50
8611;DHT22;4343;53.648;10.098;2024-03-17T14:37:34;16.40;97.60
8611;DHT22;4343;53.648;10.098;2024-03-17T14:40:00;16.10;97.90
8611;DHT22;4343;53.648;10.098;2024-03-17T14:42:25;15.90;97.70
8611;DHT22;4343;53.648;10.098;2024-03-17T14:44:51;15.60;97.40
8611;DHT22;4343;53.648;10.098;2024-03-17T14:47:16;15.00;96.70
8611;DHT22;4343;53.648;10.098;2024-03-17T14:49:42;14.60;97.50
8611;DHT22;4343;53.648;10.098;2024-03-17T14:52:10;14.40;98.00
8611;DHT22;4343;53.648;10.098;2024-03-17T14:54:36;14.30;98.20
8611;DHT22;4343;53.648;10.098;2024-03-17T14:57:01;14.10;98.70
8611;DHT22;4343;53.648;10.098;2024-03-17T14:59:27;14.00;99.40
8611;DHT22;4343;53.648;10.098;2024-03-17T15:01:52;13.90;99.40
8611;DHT22;4343;53.648;10.098;2024-03-17T15:04:18;13.80;99.60
8611;DHT22;4343;53.648;10.098;2024-03-17T15:06:44;13.70;99.90
8611;DHT22;4343;53.648;10.098;2024-03-17T15:09:09;13.60;99.90
8611;DHT22;4343;53.648;10.098;2024-03-17T15:11:35;13.50;99.90
8611;DHT22;4343;53.648;10.098;2024-03-17T15:14:00;13.30;99.90
8611;DHT22;4343;53.648;10.098;2024-03-17T15:16:26;13.30;99.90
8611;DHT22;4343;53.648;10.098;2024-03-17T15:18:51;13.20;99.90
8611;DHT22;4343;53.648;10.098;2024-03-17T15:21:17;13.20;99.90
8611;DHT22;4343;53.648;10.098;2024-03-17T15:23:42;13.00;99.90
8611;DHT22;4343;53.648;10.098;2024-03-17T15:26:08;13.00;99.90
8611;DHT22;4343;53.648;10.098;2024-03-17T15:28:34;12.90;99.90
8611;DHT22;4343;53.648;10.098;2024-03-17T15:31:01;12.70;99.90
8611;DHT22;4343;53.648;10.098;2024-03-17T15:33:27;12.70;99.90
8611;DHT22;4343;53.648;10.098;2024-03-17T15:35:53;12.60;99.90
8611;DHT22;4343;53.648;10.098;2024-03-17T15:38:19;12.50;99.90
8611;DHT22;4343;53.648;10.098;2024-03-17T15:40:47;12.40;99.90
8611;DHT22;4343;53.648;10.098;2024-03-17T15:43:13;12.30;99.90
8611;DHT22;4343;53.648;10.098;2024-03-17T15:45:38;12.20;99.90
8611;DHT22;4343;53.648;10.098;2024-03-17T15:48:04;12.00;99.90
8611;DHT22;4343;53.648;10.098;2024-03-17T15:50:30;11.90;99.90
8611;DHT22;4343;53.648;10.098;2024-03-17T15:52:56;11.80;99.90
8611;DHT22;4343;53.648;10.098;2024-03-17T15:55:21;11.80;99.90
8611;DHT22;4343;53.648;10.098;2024-03-17T15:57:48;11.70;99.90
8611;DHT22;4343;53.648;10.098;2024-03-17T16:00:14;11.60;99.90
8611;DHT22;4343;53.648;10.098;2024-03-17T16:02:42;11.60;99.90
8611;DHT22;4343;53.648;10.098;2024-03-17T16:05:09;11.50;99.90
8611;DHT22;4343;53.648;10.098;2024-03-17T16:07:36;11.40;99.90
8611;DHT22;4343;53.648;10.098;2024-03-17T16:10:04;11.30;99.90
8611;DHT22;4343;53.648;10.098;2024-03-17T16:12:29;11.20;99.90
8611;DHT22;4343;53.648;10.098;2024-03-17T16:14:55;11.10;99.90
8611;DHT22;4343;53.648;10.098;2024-03-17T16:17:26;11.10;99.90
8611;DHT22;4343;53.648;10.098;2024-03-17T16:19:52;11.00;99.90